Time;durP1;ratioP1;P1;durP2;ratioP2;P2;SDS_P1;SDS_P2;PMS_P1;PMS_P2;Temp;Humidity;BMP_temperature;BMP_pressure;BME280_temperature;BME280_humidity;BME280_pressure;Samples;Min_cycle;Max_cycle;Signal;HPM_P1;HPM_P2
2023/08/18 00:01:25;;;;;;;;;;;;;;;20.05;100.00;96537.34;5043932;28;19977;-71
2023/08/18 00:03:51;;;;;;;;;;;;;;;20.03;100.00;96532.31;5043778;28;19964;-71
2023/08/18 00:06:16;;;;;;;;;;;;;;;20.02;100.00;96528.03;5044157;28;20014;-69
2023/08/18 00:08:42;;;;;;;;;;;;;;;19.98;100.00;96524.34;5044131;28;19962;-71
2023/08/18 00:11:08;;;;;;;;;;;;;;;19.95;100.00;96514.25;5043635;28;19945;-70
2023/08/18 00:13:35;;;;;;;;;;;;;;;19.93;100.00;96511.06;5043869;28;20256;-71
2023/08/18 00:16:01;;;;;;;;;;;;;;;19.92;100.00;96512.13;5043707;28;20024;-76
2023/08/18 00:18:27;;;;;;;;;;;;;;;19.89;100.00;96511.91;5044071;28;19954;-76
2023/08/18 00:20:52;;;;;;;;;;;;;;;19.85;100.00;96515.09;5044183;28;20002;-76
2023/08/18 00:23:18;;;;;;;;;;;;;;;19.83;100.00;96519.13;5047752;28;19968;-76
2023/08/18 00:25:44;;;;;;;;;;;;;;;19.81;100.00;96527.38;5047505;28;19980;-75
2023/08/18 00:28:11;;;;;;;;;;;;;;;19.79;100.00;96526.84;5047532;28;20150;-76
2023/08/18 00:30:36;;;;;;;;;;;;;;;19.79;100.00;96532.16;5047797;28;20014;-76
2023/08/18 00:33:02;;;;;;;;;;;;;;;19.79;100.00;96526.84;5047373;28;19958;-72
2023/08/18 00:35:28;;;;;;;;;;;;;;;19.80;100.00;96527.63;5047576;28;20235;-71
2023/08/18 00:37:54;;;;;;;;;;;;;;;19.78;100.00;96519.94;5047519;28;19966;-71
2023/08/18 00:40:22;;;;;;;;;;;;;;;19.77;100.00;96528.19;5047381;28;19972;-72
2023/08/18 00:42:48;;;;;;;;;;;;;;;19.75;100.00;96519.69;5047449;28;19970;-71
2023/08/18 00:45:14;;;;;;;;;;;;;;;19.73;100.00;96519.97;5047476;28;20294;-71
2023/08/18 00:47:39;;;;;;;;;;;;;;;19.72;100.00;96517.56;5047540;28;19985;-71
2023/08/18 00:50:06;;;;;;;;;;;;;;;19.70;100.00;96517.00;5047378;28;20166;-74
2023/08/18 00:52:32;;;;;;;;;;;;;;;19.66;100.00;96512.25;5046750;28;19956;-71
2023/08/18 00:54:59;;;;;;;;;;;;;;;19.63;100.00;96512.81;5046981;28;19967;-76
2023/08/18 00:57:25;;;;;;;;;;;;;;;19.61;100.00;96514.97;5047021;28;19953;-76
2023/08/18 00:59:51;;;;;;;;;;;;;;;19.59;100.00;96505.63;5029304;28;20000;-75
2023/08/18 01:02:17;;;;;;;;;;;;;;;19.57;100.00;96503.28;5046993;28;19967;-75
2023/08/18 01:04:46;;;;;;;;;;;;;;;19.55;100.00;96507.25;5047121;28;19961;-76
2023/08/18 01:07:12;;;;;;;;;;;;;;;19.50;100.00;96502.75;5046511;28;19964;-76
2023/08/18 01:09:38;;;;;;;;;;;;;;;19.46;100.00;96497.22;5046982;28;19958;-70
2023/08/18 01:12:14;;;;;;;;;;;;;;;19.42;100.00;96490.03;5046962;28;19968;-70
2023/08/18 01:14:59;;;;;;;;;;;;;;;19.40;100.00;96492.97;5046513;28;19955;-69
2023/08/18 01:17:37;;;;;;;;;;;;;;;19.36;100.00;96485.78;5046893;28;19961;-70
2023/08/18 01:20:03;;;;;;;;;;;;;;;19.35;100.00;96486.88;5046566;28;19976;-68
2023/08/18 01:22:31;;;;;;;;;;;;;;;19.31;100.00;96481.31;5046340;28;20145;-69
2023/08/18 01:25:00;;;;;;;;;;;;;;;19.29;100.00;96486.09;5046748;28;19961;-69
2023/08/18 01:27:30;;;;;;;;;;;;;;;19.25;100.00;96488.50;5046664;28;19963;-73
2023/08/18 01:29:56;;;;;;;;;;;;;;;19.23;100.00;96484.53;5046573;28;19949;-75
2023/08/18 01:32:25;;;;;;;;;;;;;;;19.19;100.00;96494.09;5028476;28;19962;-74
2023/08/18 01:34:52;;;;;;;;;;;;;;;19.16;100.00;96498.13;5046443;28;19984;-75
2023/08/18 01:37:19;;;;;;;;;;;;;;;19.13;100.00;96501.31;5046361;28;19964;-75
2023/08/18 01:39:46;;;;;;;;;;;;;;;19.12;100.00;96497.06;5046133;28;19963;-75
2023/08/18 01:42:12;;;;;;;;;;;;;;;19.10;100.00;96504.50;5045774;28;19969;-78
2023/08/18 01:44:38;;;;;;;;;;;;;;;19.08;100.00;96501.31;5046490;28;19960;-70
2023/08/18 01:47:04;;;;;;;;;;;;;;;19.04;100.00;96501.06;5046155;28;19960;-70
2023/08/18 01:49:29;;;;;;;;;;;;;;;19.02;100.00;96492.59;5046281;28;19956;-75
2023/08/18 01:51:55;;;;;;;;;;;;;;;18.99;100.00;96487.81;5046190;28;20001;-75
2023/08/18 01:54:21;;;;;;;;;;;;;;;18.99;100.00;96481.69;5046189;28;20240;-74
2023/08/18 01:56:47;;;;;;;;;;;;;;;18.97;100.00;96489.94;5046881;28;19957;-74
2023/08/18 01:59:13;;;;;;;;;;;;;;;18.98;100.00;96490.72;5045611;28;19947;-75
2023/08/18 02:01:39;;;;;;;;;;;;;;;18.94;100.00;96493.16;5046008;28;20038;-75
2023/08/18 02:04:05;;;;;;;;;;;;;;;18.93;100.00;96491.53;5046177;28;19964;-71
2023/08/18 02:06:31;;;;;;;;;;;;;;;18.91;100.00;96493.66;5045572;28;20319;-71
2023/08/18 02:08:57;;;;;;;;;;;;;;;18.90;100.00;96494.75;5046038;28;19957;-71
2023/08/18 02:11:23;;;;;;;;;;;;;;;18.86;100.00;96485.72;5045284;28;20160;-71
2023/08/18 02:13:48;;;;;;;;;;;;;;;18.85;100.00;96492.09;5045514;28;20236;-72
2023/08/18 02:16:14;;;;;;;;;;;;;;;18.82;100.00;96498.75;5045533;28;19961;-72
2023/08/18 02:18:40;;;;;;;;;;;;;;;18.79;100.00;96501.13;5045761;28;19962;-71
2023/08/18 02:21:06;;;;;;;;;;;;;;;18.74;100.00;96499.25;5045474;28;19979;-71
2023/08/18 02:23:32;;;;;;;;;;;;;;;18.73;100.00;96491.53;5045561;28;19961;-76
2023/08/18 02:26:05;;;;;;;;;;;;;;;18.69;100.00;96495.81;5045590;28;19961;-70
2023/08/18 02:28:31;;;;;;;;;;;;;;;18.66;100.00;96502.44;5045840;28;19952;-71
2023/08/18 02:31:04;;;;;;;;;;;;;;;18.62;100.00;96498.75;5044924;28;20165;-70
2023/08/18 02:33:30;;;;;;;;;;;;;;;18.59;100.00;96496.63;5045001;28;20244;-70
2023/08/18 02:35:56;;;;;;;;;;;;;;;18.56;100.00;96497.16;5027488;28;20172;-70
2023/08/18 02:38:22;;;;;;;;;;;;;;;18.53;100.00;96495.84;5045103;28;19963;-71
2023/08/18 02:40:48;;;;;;;;;;;;;;;18.51;100.00;96492.66;5045134;28;19966;-69
2023/08/18 02:43:13;;;;;;;;;;;;;;;18.52;100.00;96490.78;5044942;28;19953;-71
2023/08/18 02:45:39;;;;;;;;;;;;;;;18.52;100.00;96498.75;5027126;28;19967;-69
2023/08/18 02:48:05;;;;;;;;;;;;;;;18.50;100.00;96496.38;5045073;28;19955;-69
2023/08/18 02:50:31;;;;;;;;;;;;;;;18.48;100.00;96495.03;5045098;28;20145;-69
2023/08/18 02:53:03;;;;;;;;;;;;;;;18.44;100.00;96492.94;5045357;28;19970;-70
2023/08/18 02:55:29;;;;;;;;;;;;;;;18.42;100.00;96492.38;5044728;28;19951;-70
2023/08/18 02:57:55;;;;;;;;;;;;;;;18.39;100.00;96481.50;5045221;28;19960;-71
2023/08/18 03:00:21;;;;;;;;;;;;;;;18.35;100.00;96481.25;5044361;28;20000;-70
2023/08/18 03:02:47;;;;;;;;;;;;;;;18.34;100.00;96477.00;5045090;28;19979;-75
2023/08/18 03:05:13;;;;;;;;;;;;;;;18.31;100.00;96472.22;5044859;28;19969;-76
2023/08/18 03:07:39;;;;;;;;;;;;;;;18.28;100.00;96480.72;5044851;28;19956;-75
2023/08/18 03:10:05;;;;;;;;;;;;;;;18.24;100.00;96479.66;5044624;28;20242;-76
2023/08/18 03:12:31;;;;;;;;;;;;;;;18.20;100.00;96481.25;5044573;28;20146;-76
2023/08/18 03:14:57;;;;;;;;;;;;;;;18.17;100.00;96482.56;5044783;28;19968;-76
2023/08/18 03:17:23;;;;;;;;;;;;;;;18.13;100.00;96483.38;5044616;28;19964;-69
2023/08/18 03:19:49;;;;;;;;;;;;;;;18.11;100.00;96483.63;5044645;28;19967;-68
2023/08/18 03:22:15;;;;;;;;;;;;;;;18.09;100.00;96485.75;5044014;28;19971;-72
2023/08/18 03:24:41;;;;;;;;;;;;;;;18.07;100.00;96484.44;5044529;28;20029;-72
2023/08/18 03:27:06;;;;;;;;;;;;;;;18.05;100.00;96476.72;5044585;28;19975;-73
2023/08/18 03:29:32;;;;;;;;;;;;;;;18.05;100.00;96487.34;5044136;28;20202;-73
2023/08/18 03:31:58;;;;;;;;;;;;;;;18.06;100.00;96491.59;5044544;28;19960;-72
2023/08/18 03:34:24;;;;;;;;;;;;;;;18.05;100.00;96485.47;5044691;28;20246;-71
2023/08/18 03:36:50;;;;;;;;;;;;;;;18.06;100.00;96486.28;5044175;28;19965;-69
2023/08/18 03:39:15;;;;;;;;;;;;;;;18.04;100.00;96486.56;5044580;28;19956;-72
2023/08/18 03:41:41;;;;;;;;;;;;;;;18.04;100.00;96486.56;5044209;28;20184;-72
2023/08/18 03:44:07;;;;;;;;;;;;;;;18.03;100.00;96487.59;5044417;28;20071;-72
2023/08/18 03:46:33;;;;;;;;;;;;;;;18.02;100.00;96485.22;5044255;28;20264;-72
2023/08/18 03:49:00;;;;;;;;;;;;;;;18.00;100.00;96482.84;5044487;28;19958;-72
2023/08/18 03:51:25;;;;;;;;;;;;;;;17.99;100.00;96483.88;5043858;28;19967;-72
2023/08/18 03:53:51;;;;;;;;;;;;;;;17.96;100.00;96473.81;5044341;28;20281;-74
2023/08/18 03:56:17;;;;;;;;;;;;;;;17.95;100.00;96471.41;5046700;28;19946;-69
2023/08/18 03:58:43;;;;;;;;;;;;;;;17.94;100.00;96472.47;5047890;28;20116;-71
2023/08/18 04:01:09;;;;;;;;;;;;;;;17.94;100.00;96480.44;5048245;28;20287;-70
2023/08/18 04:03:36;;;;;;;;;;;;;;;17.92;100.00;96478.03;5047856;28;19953;-71
2023/08/18 04:06:03;;;;;;;;;;;;;;;17.91;100.00;96471.16;5047924;28;19954;-70
2023/08/18 04:08:49;;;;;;;;;;;;;;;17.91;100.00;96468.50;5047879;28;19966;-71
2023/08/18 04:11:15;;;;;;;;;;;;;;;17.89;100.00;96473.28;5047611;28;19957;-71
2023/08/18 04:13:41;;;;;;;;;;;;;;;17.90;100.00;96474.84;5047949;28;20002;-72
2023/08/18 04:16:06;;;;;;;;;;;;;;;17.89;100.00;96480.41;5048062;28;19957;-70
2023/08/18 04:18:32;;;;;;;;;;;;;;;17.87;100.00;96472.75;5047952;28;19958;-71
2023/08/18 04:20:58;;;;;;;;;;;;;;;17.87;100.00;96474.59;5029793;28;19973;-70
2023/08/18 04:23:24;;;;;;;;;;;;;;;17.84;100.00;96470.59;5047425;28;20004;-70
2023/08/18 04:25:50;;;;;;;;;;;;;;;17.83;100.00;96482.28;5047385;28;19954;-70
2023/08/18 04:28:16;;;;;;;;;;;;;;;17.82;100.00;96470.84;5047403;28;19961;-71
2023/08/18 04:30:44;;;;;;;;;;;;;;;17.81;100.00;96484.38;5047775;28;19962;-76
2023/08/18 04:33:10;;;;;;;;;;;;;;;17.81;100.00;96484.38;5047421;28;19959;-75
2023/08/18 04:35:35;;;;;;;;;;;;;;;17.80;100.00;96485.41;5047382;28;19996;-69
2023/08/18 04:38:01;;;;;;;;;;;;;;;17.79;100.00;96489.16;5047549;28;19968;-69
2023/08/18 04:40:27;;;;;;;;;;;;;;;17.76;100.00;96482.50;5046942;28;19969;-69
2023/08/18 04:42:53;;;;;;;;;;;;;;;17.76;100.00;96485.16;5047431;28;19957;-69
2023/08/18 04:45:19;;;;;;;;;;;;;;;17.75;100.00;96486.22;5047577;28;19958;-69
2023/08/18 04:47:45;;;;;;;;;;;;;;;17.75;100.00;96480.91;5047420;28;19975;-69
2023/08/18 04:50:11;;;;;;;;;;;;;;;17.75;100.00;96482.78;5047347;28;19953;-74
2023/08/18 04:52:37;;;;;;;;;;;;;;;17.75;100.00;96488.06;5047096;28;19942;-72
2023/08/18 04:55:03;;;;;;;;;;;;;;;17.77;100.00;96483.31;5046917;28;19965;-71
2023/08/18 04:57:29;;;;;;;;;;;;;;;17.78;100.00;96490.97;5047090;28;19951;-72
2023/08/18 04:59:55;;;;;;;;;;;;;;;17.81;100.00;96489.69;5046667;28;19959;-72
2023/08/18 05:02:21;;;;;;;;;;;;;;;17.85;100.00;96494.22;5046710;28;19969;-72
2023/08/18 05:04:47;;;;;;;;;;;;;;;17.91;100.00;96495.03;5046877;28;19961;-71
2023/08/18 05:07:13;;;;;;;;;;;;;;;17.95;100.00;96493.44;5046007;28;19959;-72
2023/08/18 05:09:39;;;;;;;;;;;;;;;18.01;100.00;96492.38;5046449;28;19962;-71
2023/08/18 05:12:07;;;;;;;;;;;;;;;18.08;100.00;96486.81;5028879;28;19963;-77
2023/08/18 05:14:34;;;;;;;;;;;;;;;18.15;100.00;96489.22;5046921;28;19980;-78
2023/08/18 05:17:00;;;;;;;;;;;;;;;18.22;100.00;96489.72;5046936;28;19953;-77
2023/08/18 05:19:26;;;;;;;;;;;;;;;18.30;100.00;96483.91;5046828;28;20260;-78
2023/08/18 05:21:51;;;;;;;;;;;;;;;18.37;100.00;96491.59;5046305;28;20010;-77
2023/08/18 05:24:17;;;;;;;;;;;;;;;18.46;100.00;96487.34;5046268;28;19967;-78
2023/08/18 05:26:43;;;;;;;;;;;;;;;18.57;100.00;96482.81;5046753;28;19967;-72
2023/08/18 05:29:10;;;;;;;;;;;;;;;18.65;100.00;96477.75;5046146;28;19954;-69
2023/08/18 05:31:37;;;;;;;;;;;;;;;18.73;100.00;96486.22;5046266;28;20121;-69
2023/08/18 05:34:03;;;;;;;;;;;;;;;18.77;100.00;96482.78;5046685;28;19959;-70
2023/08/18 05:36:29;;;;;;;;;;;;;;;18.83;100.00;96487.03;5046684;28;20271;-70
2023/08/18 05:38:55;;;;;;;;;;;;;;;18.97;100.00;96491.81;5046431;28;20138;-70
2023/08/18 05:41:21;;;;;;;;;;;;;;;19.18;100.00;96488.00;5046525;28;19977;-69
2023/08/18 05:43:47;;;;;;;;;;;;;;;19.44;100.00;96493.22;5046399;28;19964;-69
2023/08/18 05:46:13;;;;;;;;;;;;;;;19.77;100.00;96491.72;5045080;28;19966;-69
2023/08/18 05:48:38;;;;;;;;;;;;;;;20.08;100.00;96484.34;5046287;28;19956;-73
2023/08/18 05:51:04;;;;;;;;;;;;;;;20.33;100.00;96485.22;5045781;28;19946;-73
2023/08/18 05:53:31;;;;;;;;;;;;;;;20.61;100.00;96488.19;5046244;28;20232;-73
2023/08/18 05:55:57;;;;;;;;;;;;;;;20.86;100.00;96482.63;5046178;28;19967;-73
2023/08/18 05:58:23;;;;;;;;;;;;;;;21.11;100.00;96480.75;5045875;28;19971;-74
2023/08/18 06:00:49;;;;;;;;;;;;;;;21.33;100.00;96485.53;5045678;28;19956;-74
2023/08/18 06:03:17;;;;;;;;;;;;;;;21.49;100.00;96492.31;5045747;28;19963;-70
2023/08/18 06:05:45;;;;;;;;;;;;;;;21.57;100.00;96488.22;5045739;28;20126;-74
2023/08/18 06:08:11;;;;;;;;;;;;;;;21.73;100.00;96491.44;5045911;28;20265;-73
2023/08/18 06:10:36;;;;;;;;;;;;;;;21.85;100.00;96494.50;5045704;28;19957;-74
2023/08/18 06:13:02;;;;;;;;;;;;;;;21.97;100.00;96488.72;5045811;28;19965;-73
2023/08/18 06:15:29;;;;;;;;;;;;;;;22.08;100.00;96490.16;5045794;28;19954;-73
2023/08/18 06:17:55;;;;;;;;;;;;;;;22.06;100.00;96486.97;5045572;28;19963;-74
2023/08/18 06:20:20;;;;;;;;;;;;;;;22.03;100.00;96492.13;5045708;28;19955;-73
2023/08/18 06:22:46;;;;;;;;;;;;;;;22.09;100.00;96499.75;5045413;28;20001;-70
2023/08/18 06:25:12;;;;;;;;;;;;;;;22.15;100.00;96499.66;5045793;28;20018;-74
2023/08/18 06:27:38;;;;;;;;;;;;;;;22.19;100.00;96504.13;5045328;28;19962;-74
2023/08/18 06:30:04;;;;;;;;;;;;;;;22.29;100.00;96503.22;5045223;28;20290;-75
2023/08/18 06:32:31;;;;;;;;;;;;;;;22.27;100.00;96492.03;5045114;28;19962;-74
2023/08/18 06:34:57;;;;;;;;;;;;;;;22.31;100.00;96510.94;5045420;28;19969;-74
2023/08/18 06:37:24;;;;;;;;;;;;;;;22.38;100.00;96488.09;5045061;28;19968;-75
2023/08/18 06:39:49;;;;;;;;;;;;;;;22.48;100.00;96503.19;5045265;28;19953;-73
2023/08/18 06:42:15;;;;;;;;;;;;;;;22.50;100.00;96498.34;5045271;28;19967;-70
2023/08/18 06:44:41;;;;;;;;;;;;;;;22.49;100.00;96510.91;5045696;28;19958;-70
2023/08/18 06:47:07;;;;;;;;;;;;;;;22.55;100.00;96502.78;5045174;28;19962;-70
2023/08/18 06:49:33;;;;;;;;;;;;;;;22.56;100.00;96496.38;5045354;28;19997;-70
2023/08/18 06:51:59;;;;;;;;;;;;;;;22.55;100.00;96508.13;5044721;28;19984;-72
2023/08/18 06:54:25;;;;;;;;;;;;;;;22.57;100.00;96479.25;5045028;28;19956;-72
2023/08/18 06:56:51;;;;;;;;;;;;;;;22.58;100.00;96486.97;5044534;28;19963;-72
2023/08/18 06:59:17;;;;;;;;;;;;;;;22.65;100.00;96478.56;5045065;28;19962;-76
2023/08/18 07:01:43;;;;;;;;;;;;;;;22.69;100.00;96490.25;5044558;28;19975;-72
2023/08/18 07:04:09;;;;;;;;;;;;;;;22.71;100.00;96485.41;5044618;28;19956;-72
2023/08/18 07:06:36;;;;;;;;;;;;;;;22.75;100.00;96494.44;5044831;28;19962;-72
2023/08/18 07:09:03;;;;;;;;;;;;;;;22.92;100.00;96485.81;5044449;28;19953;-72
2023/08/18 07:11:29;;;;;;;;;;;;;;;22.96;100.00;96491.38;5044676;28;19964;-72
2023/08/18 07:13:55;;;;;;;;;;;;;;;23.06;96.83;96469.81;5044844;28;19954;-72
2023/08/18 07:16:21;;;;;;;;;;;;;;;23.09;97.78;96477.25;5044655;28;19969;-75
2023/08/18 07:18:47;;;;;;;;;;;;;;;23.04;94.87;96469.34;5044193;28;19956;-74
2023/08/18 07:21:13;;;;;;;;;;;;;;;23.05;99.03;96489.63;5044200;28;20063;-70
2023/08/18 07:23:38;;;;;;;;;;;;;;;23.09;98.60;96483.38;5044165;28;19963;-70
2023/08/18 07:26:04;;;;;;;;;;;;;;;23.22;98.23;96487.13;5044595;28;19964;-70
2023/08/18 07:28:31;;;;;;;;;;;;;;;23.15;97.79;96488.66;5043999;28;19951;-70
2023/08/18 07:31:07;;;;;;;;;;;;;;;23.17;97.15;96495.28;5044048;28;19959;-70
2023/08/18 07:33:34;;;;;;;;;;;;;;;23.25;99.06;96509.84;5044429;28;19961;-70
2023/08/18 07:36:00;;;;;;;;;;;;;;;23.39;96.57;96494.59;5044395;28;19963;-72
2023/08/18 07:38:26;;;;;;;;;;;;;;;23.52;92.63;96479.59;5044346;28;20029;-70
2023/08/18 07:40:52;;;;;;;;;;;;;;;23.62;92.20;96491.94;5044349;28;20116;-71
2023/08/18 07:43:18;;;;;;;;;;;;;;;23.67;94.69;96492.66;5044337;28;19983;-71
2023/08/18 07:45:44;;;;;;;;;;;;;;;23.71;88.08;96456.16;5044314;28;19962;-70
2023/08/18 07:48:11;;;;;;;;;;;;;;;23.70;94.30;96501.94;5044574;28;19945;-70
2023/08/18 07:50:37;;;;;;;;;;;;;;;23.72;89.28;96486.38;5044215;28;19959;-70
2023/08/18 07:53:03;;;;;;;;;;;;;;;23.69;91.81;96485.09;5044067;28;20009;-77
2023/08/18 07:55:29;;;;;;;;;;;;;;;23.69;90.56;96474.41;5043937;28;19979;-78
2023/08/18 07:57:55;;;;;;;;;;;;;;;23.70;93.60;96501.94;5044020;28;20129;-69
2023/08/18 08:00:20;;;;;;;;;;;;;;;23.76;92.31;96502.66;5043901;28;20014;-69
2023/08/18 08:02:47;;;;;;;;;;;;;;;23.82;92.16;96491.53;5043879;28;19967;-70
2023/08/18 08:05:13;;;;;;;;;;;;;;;23.86;88.51;96471.09;5044019;28;19962;-69
2023/08/18 08:07:40;;;;;;;;;;;;;;;23.92;91.63;96493.22;5044033;28;19952;-69
2023/08/18 08:10:06;;;;;;;;;;;;;;;23.95;90.75;96481.88;5044147;28;19961;-69
2023/08/18 08:12:39;;;;;;;;;;;;;;;24.06;90.22;96483.22;5044076;28;19960;-75
2023/08/18 08:15:07;;;;;;;;;;;;;;;24.18;88.12;96479.22;5043656;28;20201;-72
2023/08/18 08:17:33;;;;;;;;;;;;;;;24.26;88.86;96473.13;5043653;28;19962;-71
2023/08/18 08:20:00;;;;;;;;;;;;;;;24.33;84.86;96464.66;5043678;28;19957;-71
2023/08/18 08:22:26;;;;;;;;;;;;;;;24.34;87.48;96463.53;5043951;28;19968;-72
2023/08/18 08:24:54;;;;;;;;;;;;;;;24.38;87.44;96459.97;5043806;28;20254;-71
2023/08/18 08:27:20;;;;;;;;;;;;;;;24.47;85.67;96458.13;5043983;28;19961;-71
2023/08/18 08:29:46;;;;;;;;;;;;;;;24.52;88.88;96473.31;5043809;28;19957;-75
2023/08/18 08:32:12;;;;;;;;;;;;;;;24.59;86.55;96454.09;5043914;28;19959;-77
2023/08/18 08:34:39;;;;;;;;;;;;;;;24.70;86.93;96452.75;5025905;28;19973;-78
2023/08/18 08:37:06;;;;;;;;;;;;;;;24.82;86.81;96452.97;5043781;28;19959;-78
2023/08/18 08:39:31;;;;;;;;;;;;;;;24.83;84.30;96441.13;5043381;28;20147;-78
2023/08/18 08:41:57;;;;;;;;;;;;;;;24.95;83.72;96447.78;5044161;28;19964;-78
2023/08/18 08:44:24;;;;;;;;;;;;;;;25.02;76.89;96406.00;5047112;28;19968;-78
2023/08/18 08:46:51;;;;;;;;;;;;;;;25.01;79.99;96428.56;5047501;28;20249;-78
2023/08/18 08:49:19;;;;;;;;;;;;;;;25.09;80.19;96425.13;5047213;28;20150;-71
2023/08/18 08:51:48;;;;;;;;;;;;;;;25.24;78.00;96413.19;5046849;28;19963;-81
2023/08/18 08:54:18;;;;;;;;;;;;;;;25.35;79.06;96424.41;5046987;28;20019;-80
2023/08/18 08:56:46;;;;;;;;;;;;;;;25.41;79.74;96423.16;5047206;28;19987;-82
2023/08/18 08:59:12;;;;;;;;;;;;;;;25.49;78.18;96427.75;5046957;28;20144;-81
2023/08/18 09:01:38;;;;;;;;;;;;;;;25.50;79.92;96437.38;5046933;28;19956;-77
2023/08/18 09:04:04;;;;;;;;;;;;;;;25.54;79.71;96434.84;5046460;28;19955;-77
2023/08/18 09:06:29;;;;;;;;;;;;;;;25.63;77.99;96426.78;5046909;28;19968;-70
2023/08/18 09:08:56;;;;;;;;;;;;;;;25.62;77.31;96415.28;5046831;28;19967;-72
2023/08/18 09:11:37;;;;;;;;;;;;;;;25.69;74.97;96412.88;5046881;28;20213;-78
2023/08/18 09:14:03;;;;;;;;;;;;;;;25.86;80.84;96446.22;5046784;28;19969;-78
2023/08/18 09:16:30;;;;;;;;;;;;;;;25.99;73.19;96388.09;5046398;28;20346;-78
2023/08/18 09:18:56;;;;;;;;;;;;;;;26.07;78.12;96433.75;5046813;28;19965;-78
2023/08/18 09:21:23;;;;;;;;;;;;;;;26.09;78.37;96430.75;5046401;28;20025;-78
2023/08/18 09:23:54;;;;;;;;;;;;;;;26.17;71.39;96400.38;5046451;28;19963;-79
2023/08/18 09:26:19;;;;;;;;;;;;;;;26.24;75.60;96424.88;5046615;28;19958;-77
2023/08/18 09:28:45;;;;;;;;;;;;;;;26.37;75.38;96420.41;5045825;28;19961;-75
2023/08/18 09:31:11;;;;;;;;;;;;;;;26.48;74.01;96412.78;5046226;28;19957;-76
2023/08/18 09:33:37;;;;;;;;;;;;;;;26.56;68.55;96398.50;5046211;28;19958;-76
2023/08/18 09:36:05;;;;;;;;;;;;;;;26.66;72.41;96403.56;5045334;28;20198;-75
2023/08/18 09:38:43;;;;;;;;;;;;;;;26.70;71.63;96452.16;5045776;28;20113;-76
2023/08/18 09:41:09;;;;;;;;;;;;;;;26.73;68.02;96440.72;5045680;28;19964;-76
2023/08/18 09:43:39;;;;;;;;;;;;;;;26.81;71.77;96461.44;5045707;28;20157;-78
2023/08/18 09:46:06;;;;;;;;;;;;;;;26.86;70.98;96463.97;5045952;28;19957;-70
2023/08/18 09:48:34;;;;;;;;;;;;;;;26.92;69.86;96459.97;5045399;28;19956;-71
2023/08/18 09:51:00;;;;;;;;;;;;;;;26.97;67.08;96450.94;5046078;28;19969;-71
2023/08/18 09:53:27;;;;;;;;;;;;;;;27.03;69.17;96460.41;5045418;28;19963;-71
2023/08/18 09:55:57;;;;;;;;;;;;;;;27.04;67.49;96450.41;5028190;28;19971;-71
2023/08/18 09:58:30;;;;;;;;;;;;;;;27.06;70.14;96469.72;5046025;28;19954;-70
2023/08/18 10:00:56;;;;;;;;;;;;;;;27.06;70.60;96469.72;5045742;28;19947;-70
2023/08/18 10:03:26;;;;;;;;;;;;;;;27.12;68.24;96460.34;5045440;28;19970;-76
2023/08/18 10:05:53;;;;;;;;;;;;;;;27.21;68.27;96463.78;5046110;28;19967;-76
2023/08/18 10:08:21;;;;;;;;;;;;;;;27.29;70.43;96470.28;5045272;28;19964;-76
2023/08/18 10:10:46;;;;;;;;;;;;;;;27.38;71.42;96464.84;5045543;28;19962;-79
2023/08/18 10:13:13;;;;;;;;;;;;;;;27.46;69.53;96458.59;5045761;28;20125;-83
2023/08/18 10:15:39;;;;;;;;;;;;;;;27.50;68.42;96457.63;5045564;28;19956;-79
2023/08/18 10:18:09;;;;;;;;;;;;;;;27.60;64.89;96444.91;5045775;28;20151;-79
2023/08/18 10:20:35;;;;;;;;;;;;;;;27.72;71.54;96461.91;5045561;28;19950;-78
2023/08/18 10:23:04;;;;;;;;;;;;;;;27.85;71.89;96461.97;5027682;28;20038;-78
2023/08/18 10:25:35;;;;;;;;;;;;;;;27.93;64.42;96439.59;5045832;28;19956;-71
2023/08/18 10:28:05;;;;;;;;;;;;;;;28.01;66.13;96443.31;5044841;28;19967;-71
2023/08/18 10:30:31;;;;;;;;;;;;;;;28.08;68.10;96451.66;5045474;28;19955;-71
2023/08/18 10:33:00;;;;;;;;;;;;;;;28.14;66.48;96442.25;5045311;28;20213;-71
2023/08/18 10:35:27;;;;;;;;;;;;;;;28.25;69.85;96456.13;5044953;28;19960;-71
2023/08/18 10:37:54;;;;;;;;;;;;;;;28.40;68.71;96446.59;5045264;28;19971;-71
2023/08/18 10:40:30;;;;;;;;;;;;;;;28.57;70.32;96456.44;5045423;28;20132;-73
2023/08/18 10:43:02;;;;;;;;;;;;;;;28.63;63.24;96420.03;5045019;28;19973;-73
2023/08/18 10:45:28;;;;;;;;;;;;;;;28.73;66.29;96433.88;5044906;28;19976;-76
2023/08/18 10:47:57;;;;;;;;;;;;;;;28.84;63.70;96436.13;5045025;28;19955;-74
2023/08/18 10:50:24;;;;;;;;;;;;;;;28.90;64.81;96442.88;5044716;28;19948;-71
2023/08/18 10:52:51;;;;;;;;;;;;;;;28.98;58.09;96430.38;5044505;28;19957;-71
2023/08/18 10:55:16;;;;;;;;;;;;;;;29.08;60.23;96449.63;5044817;28;19976;-70
2023/08/18 10:57:43;;;;;;;;;;;;;;;29.23;58.78;96436.59;5044479;28;20231;-70
2023/08/18 11:00:12;;;;;;;;;;;;;;;29.41;60.64;96440.63;5044087;28;19964;-77
2023/08/18 11:02:38;;;;;;;;;;;;;;;29.62;62.84;96445.09;5044301;28;20263;-77
2023/08/18 11:05:05;;;;;;;;;;;;;;;29.77;60.17;96432.81;5026003;28;20150;-76
2023/08/18 11:07:31;;;;;;;;;;;;;;;29.90;55.99;96423.50;5044320;28;19964;-75
2023/08/18 11:09:57;;;;;;;;;;;;;;;29.88;51.74;96423.88;5044422;28;19956;-73
2023/08/18 11:12:23;;;;;;;;;;;;;;;29.98;57.36;96435.31;5044554;28;19965;-73
2023/08/18 11:14:49;;;;;;;;;;;;;;;30.08;56.13;96430.19;5044224;28;19991;-76
2023/08/18 11:17:14;;;;;;;;;;;;;;;30.24;57.36;96437.56;5044626;28;19963;-75
2023/08/18 11:19:40;;;;;;;;;;;;;;;30.39;58.32;96427.94;5044152;28;19951;-74
2023/08/18 11:22:06;;;;;;;;;;;;;;;30.52;56.76;96415.91;5044025;28;20183;-75
2023/08/18 11:24:33;;;;;;;;;;;;;;;30.64;59.41;96423.13;5044539;28;20150;-75
2023/08/18 11:26:59;;;;;;;;;;;;;;;30.68;56.65;96426.72;5044331;28;20119;-73
2023/08/18 11:29:26;;;;;;;;;;;;;;;30.82;55.84;96420.88;5044403;28;19965;-77
2023/08/18 11:31:52;;;;;;;;;;;;;;;30.86;54.18;96419.81;5044002;28;20160;-77
2023/08/18 11:34:20;;;;;;;;;;;;;;;31.00;49.54;96405.88;5044316;28;19981;-78
2023/08/18 11:36:46;;;;;;;;;;;;;;;31.05;46.10;96402.88;5026612;28;20157;-78
2023/08/18 11:39:12;;;;;;;;;;;;;;;31.11;49.11;96406.88;5044271;28;19974;-78
2023/08/18 11:41:40;;;;;;;;;;;;;;;31.14;49.57;96413.53;5043921;28;19961;-77
2023/08/18 11:44:07;;;;;;;;;;;;;;;31.19;44.44;96420.63;5044123;28;19970;-77
2023/08/18 11:46:37;;;;;;;;;;;;;;;31.19;48.37;96426.03;5044247;28;19960;-77
2023/08/18 11:49:11;;;;;;;;;;;;;;;31.25;45.20;96419.97;5043997;28;19959;-76
2023/08/18 11:51:37;;;;;;;;;;;;;;;31.33;44.67;96413.59;5043988;28;19965;-77
2023/08/18 11:54:12;;;;;;;;;;;;;;;31.49;50.63;96426.31;5043956;28;20021;-72
2023/08/18 11:56:38;;;;;;;;;;;;;;;31.58;48.04;96413.34;5043880;28;20135;-78
2023/08/18 11:59:04;;;;;;;;;;;;;;;31.64;47.93;96411.13;5044300;28;19943;-78
2023/08/18 12:01:33;;;;;;;;;;;;;;;31.68;49.37;96422.84;5043766;28;19957;-78
2023/08/18 12:04:00;;;;;;;;;;;;;;;31.76;48.04;96414.50;5044113;28;19969;-79
2023/08/18 12:06:26;;;;;;;;;;;;;;;31.84;51.82;96418.16;5044271;28;19964;-79
2023/08/18 12:08:52;;;;;;;;;;;;;;;31.93;50.31;96407.06;5026503;28;20256;-79
2023/08/18 12:11:17;;;;;;;;;;;;;;;32.01;51.22;96419.66;5026428;28;19967;-78
2023/08/18 12:13:43;;;;;;;;;;;;;;;32.12;46.91;96406.28;5044204;28;19952;-77
2023/08/18 12:16:09;;;;;;;;;;;;;;;32.20;50.10;96407.22;5044629;28;19958;-77
2023/08/18 12:18:35;;;;;;;;;;;;;;;32.30;49.65;96403.91;5048065;28;19965;-78
2023/08/18 12:21:01;;;;;;;;;;;;;;;32.43;48.23;96394.44;5047956;28;19971;-78
2023/08/18 12:23:27;;;;;;;;;;;;;;;32.55;49.57;96402.44;5047579;28;19969;-78
2023/08/18 12:25:52;;;;;;;;;;;;;;;32.63;51.00;96403.31;5048072;28;20000;-78
2023/08/18 12:28:18;;;;;;;;;;;;;;;32.68;50.08;96402.25;5048016;28;19963;-78
2023/08/18 12:30:44;;;;;;;;;;;;;;;32.65;48.09;96397.53;5047423;28;19961;-72
2023/08/18 12:33:10;;;;;;;;;;;;;;;32.66;47.42;96388.25;5047660;28;19977;-76
2023/08/18 12:35:36;;;;;;;;;;;;;;;32.70;49.52;96389.88;5047601;28;19966;-76
2023/08/18 12:38:02;;;;;;;;;;;;;;;32.73;48.14;96391.09;5047557;28;19977;-76